createdAt,value
2022-12-16T00:02:02.367Z,1.08
2022-12-16T00:04:29.136Z,1.08
2022-12-16T00:06:55.847Z,1.25
2022-12-16T00:09:22.569Z,0.50
2022-12-16T00:11:49.440Z,1.85
2022-12-16T00:14:16.247Z,0.30
2022-12-16T00:16:43.024Z,1.77
2022-12-16T00:19:09.740Z,0.82
2022-12-16T00:21:36.904Z,4.68
2022-12-16T00:24:03.732Z,1.52
2022-12-16T00:26:31.237Z,1.52
2022-12-16T00:28:58.385Z,3.03
2022-12-16T00:31:26.321Z,1.35
2022-12-16T00:33:56.642Z,1.15
2022-12-16T00:36:23.409Z,1.60
2022-12-16T00:38:52.424Z,2.58
2022-12-16T00:41:20.218Z,1.30
2022-12-16T00:43:47.279Z,0.68
2022-12-16T00:46:14.069Z,1.08
2022-12-16T00:48:40.833Z,1.83
2022-12-16T00:51:07.558Z,2.45
2022-12-16T00:53:36.123Z,1.75
2022-12-16T00:56:08.264Z,2.70
2022-12-16T00:58:35.896Z,2.35
2022-12-16T01:01:03.638Z,1.25
2022-12-16T01:03:30.916Z,0.63
2022-12-16T01:05:57.795Z,1.27
2022-12-16T01:08:24.556Z,0.55
2022-12-16T01:10:56.657Z,3.17
2022-12-16T01:13:24.985Z,3.28
2022-12-16T01:15:52.005Z,1.73
2022-12-16T01:18:19.404Z,1.20
2022-12-16T01:20:46.096Z,0.50
2022-12-16T01:23:12.823Z,2.08
2022-12-16T01:25:39.472Z,0.80
2022-12-16T01:28:06.143Z,2.70
2022-12-16T01:30:32.843Z,0.85
2022-12-16T01:32:59.537Z,3.33
2022-12-16T01:35:56.663Z,0.32
2022-12-16T01:38:13.465Z,3.28
2022-12-16T01:40:40.194Z,1.05
2022-12-16T01:43:12.777Z,2.97
2022-12-16T01:45:39.690Z,1.52
2022-12-16T01:48:30.672Z,3.70
2022-12-16T01:51:07.189Z,1.55
2022-12-16T01:53:35.824Z,2.28
2022-12-16T01:56:03.510Z,3.60
2022-12-16T01:58:33.269Z,1.63
2022-12-16T02:01:00.934Z,1.05
2022-12-16T02:03:30.851Z,0.98
2022-12-16T02:05:59.211Z,2.00
2022-12-16T02:08:26.041Z,2.53
2022-12-16T02:11:28.463Z,1.10
2022-12-16T02:14:40.732Z,1.05
2022-12-16T02:17:26.224Z,3.15
2022-12-16T02:20:40.890Z,7.00
2022-12-16T02:23:29.805Z,0.60
2022-12-16T02:26:17.060Z,0.70
2022-12-16T02:29:02.606Z,0.68
2022-12-16T02:31:53.852Z,1.15
2022-12-16T02:34:34.224Z,1.67
2022-12-16T02:37:32.017Z,1.85
2022-12-16T02:40:06.349Z,0.82
2022-12-16T02:42:42.017Z,1.08
2022-12-16T02:45:19.721Z,1.60
2022-12-16T02:47:46.962Z,2.00
2022-12-16T02:50:21.822Z,2.58
2022-12-16T02:52:50.233Z,1.33
2022-12-16T02:55:17.473Z,1.40
2022-12-16T02:57:59.012Z,1.23
2022-12-16T03:00:28.606Z,1.40
2022-12-16T03:03:11.823Z,0.50
2022-12-16T03:05:41.007Z,3.72
2022-12-16T03:08:19.108Z,1.58
2022-12-16T03:10:51.154Z,1.00
2022-12-16T03:13:20.141Z,0.40
2022-12-16T03:15:49.565Z,1.15
2022-12-16T03:18:18.149Z,1.27
2022-12-16T03:20:50.663Z,1.30
2022-12-16T03:23:25.643Z,1.42
2022-12-16T03:25:56.877Z,1.17
2022-12-16T03:28:49.680Z,1.58
2022-12-16T03:31:53.738Z,1.00
2022-12-16T03:34:39.083Z,1.05
2022-12-16T03:37:09.564Z,0.80
2022-12-16T03:39:44.449Z,1.33
2022-12-16T03:42:13.491Z,1.10
2022-12-16T03:44:40.380Z,0.98
2022-12-16T03:47:07.084Z,0.70
2022-12-16T03:49:33.836Z,1.10
2022-12-16T03:52:00.885Z,1.60
2022-12-16T03:54:27.542Z,1.55
2022-12-16T03:56:54.347Z,0.85
2022-12-16T03:59:21.231Z,1.20
2022-12-16T04:01:48.173Z,1.65
2022-12-16T04:04:14.973Z,0.70
2022-12-16T04:06:41.687Z,1.10
2022-12-16T04:09:08.967Z,0.47
2022-12-16T04:11:54.348Z,0.75
2022-12-16T04:14:39.656Z,3.55
2022-12-16T04:17:24.913Z,1.80
2022-12-16T04:20:26.845Z,0.60
2022-12-16T04:23:12.404Z,1.13
2022-12-16T04:25:39.142Z,0.98
2022-12-16T04:28:05.881Z,0.95
2022-12-16T04:30:36.316Z,1.15
2022-12-16T04:33:25.723Z,0.63
2022-12-16T04:36:11.291Z,1.40
2022-12-16T04:38:56.867Z,1.08
2022-12-16T04:41:42.538Z,1.02
2022-12-16T04:44:27.755Z,2.70
2022-12-16T04:47:13.127Z,1.17
2022-12-16T04:49:58.529Z,0.47
2022-12-16T04:52:44.076Z,0.32
2022-12-16T04:55:30.189Z,0.38
2022-12-16T04:58:17.647Z,1.70
2022-12-16T05:01:03.819Z,0.80
2022-12-16T05:03:49.923Z,0.68
2022-12-16T05:06:35.778Z,0.63
2022-12-16T05:09:22.303Z,0.60
2022-12-16T05:12:07.792Z,0.95
2022-12-16T05:14:53.364Z,0.52
2022-12-16T05:17:39.296Z,1.48
2022-12-16T05:20:25.425Z,2.95
2022-12-16T05:23:10.914Z,1.52
2022-12-16T05:25:56.497Z,3.28
2022-12-16T05:28:41.922Z,3.38
2022-12-16T05:31:27.471Z,2.13
2022-12-16T05:34:12.716Z,3.25
2022-12-16T05:36:59.770Z,8.02
2022-12-16T05:39:45.349Z,1.38
2022-12-16T05:42:30.903Z,2.58
2022-12-16T05:45:16.431Z,1.83
2022-12-16T05:48:01.586Z,3.80
2022-12-16T05:50:47.021Z,1.60
2022-12-16T05:53:32.983Z,2.28
2022-12-16T05:56:18.510Z,6.60
2022-12-16T05:59:04.012Z,1.75
2022-12-16T06:01:49.666Z,0.70
2022-12-16T06:04:34.944Z,2.13
2022-12-16T06:07:20.531Z,7.63
2022-12-16T06:10:05.957Z,3.55
2022-12-16T06:12:51.278Z,1.13
2022-12-16T06:15:36.786Z,3.25
2022-12-16T06:18:22.372Z,2.42
2022-12-16T06:21:07.556Z,4.97
2022-12-16T06:23:53.260Z,2.67
2022-12-16T06:26:38.584Z,0.77
2022-12-16T06:29:23.971Z,2.60
2022-12-16T06:32:09.488Z,1.98
2022-12-16T06:34:55.056Z,1.77
2022-12-16T06:37:40.537Z,1.98
2022-12-16T06:40:26.460Z,0.80
2022-12-16T06:43:11.861Z,1.85
2022-12-16T06:45:57.451Z,0.98
2022-12-16T06:48:42.617Z,1.67
2022-12-16T06:51:28.013Z,1.48
2022-12-16T06:54:13.486Z,1.42
2022-12-16T06:56:58.596Z,0.70
2022-12-16T06:59:44.040Z,3.20
2022-12-16T07:02:30.655Z,1.13
2022-12-16T07:05:16.020Z,2.05
2022-12-16T07:08:08.760Z,2.08
2022-12-16T07:10:55.028Z,1.70
2022-12-16T07:13:41.264Z,1.70
2022-12-16T07:16:26.595Z,0.80
2022-12-16T07:19:11.935Z,2.53
2022-12-16T07:21:57.281Z,0.90
2022-12-16T07:24:42.737Z,1.45
2022-12-16T07:27:28.096Z,1.35
2022-12-16T07:30:13.543Z,0.82
2022-12-16T07:32:58.862Z,0.85
2022-12-16T07:35:43.979Z,0.80
2022-12-16T07:38:29.445Z,1.20
2022-12-16T07:41:14.621Z,1.75
2022-12-16T07:44:00.228Z,1.65
2022-12-16T07:46:45.702Z,4.50
2022-12-16T07:49:43.044Z,2.17
2022-12-16T07:52:28.573Z,1.10
2022-12-16T07:55:14.205Z,2.22
2022-12-16T07:57:59.729Z,0.88
2022-12-16T08:00:45.157Z,0.80
2022-12-16T08:03:31.062Z,1.15
2022-12-16T08:06:16.565Z,1.15
2022-12-16T08:09:02.248Z,1.30
2022-12-16T08:11:47.943Z,2.03
2022-12-16T08:14:33.357Z,1.90
2022-12-16T08:17:18.896Z,1.10
2022-12-16T08:20:04.189Z,0.55
2022-12-16T08:22:49.570Z,1.30
2022-12-16T08:25:35.169Z,1.15
2022-12-16T08:28:20.791Z,1.40
2022-12-16T08:31:09.933Z,1.13
2022-12-16T08:33:55.209Z,3.72
2022-12-16T08:36:41.276Z,4.90
2022-12-16T08:39:28.298Z,1.48
2022-12-16T08:42:13.692Z,1.55
2022-12-16T08:44:58.887Z,1.00
2022-12-16T08:47:44.445Z,1.77
2022-12-16T08:50:30.111Z,0.88
2022-12-16T08:53:15.649Z,0.75
2022-12-16T08:56:01.514Z,1.08
2022-12-16T08:58:46.956Z,1.35
2022-12-16T09:01:32.647Z,1.98
2022-12-16T09:04:20.796Z,3.45
2022-12-16T09:07:06.320Z,1.70
2022-12-16T09:09:51.894Z,2.67
2022-12-16T09:12:37.332Z,1.50
2022-12-16T09:15:23.213Z,1.33
2022-12-16T09:18:15.419Z,1.42
2022-12-16T09:21:00.847Z,1.35
2022-12-16T09:23:46.456Z,2.45
2022-12-16T09:26:31.676Z,4.55
2022-12-16T09:29:17.236Z,2.47
2022-12-16T09:32:02.806Z,1.98
2022-12-16T09:34:48.122Z,3.17
2022-12-16T09:37:33.762Z,1.75
2022-12-16T09:40:19.208Z,2.67
2022-12-16T09:43:16.310Z,1.30
2022-12-16T09:46:10.818Z,1.02
2022-12-16T09:49:18.173Z,1.65
2022-12-16T09:52:04.516Z,1.20
2022-12-16T09:54:54.020Z,1.30
2022-12-16T09:57:40.335Z,3.60
2022-12-16T10:00:35.484Z,1.30
2022-12-16T10:03:33.958Z,1.27
2022-12-16T10:06:28.160Z,1.45
2022-12-16T10:09:35.701Z,1.23
2022-12-16T10:12:36.576Z,1.38
2022-12-16T10:15:40.463Z,0.68
2022-12-16T10:18:41.795Z,2.00
2022-12-16T10:21:34.732Z,1.52
2022-12-16T10:24:40.223Z,1.93
2022-12-16T10:27:33.414Z,1.55
2022-12-16T10:30:24.565Z,1.58
2022-12-16T10:33:18.048Z,1.20
2022-12-16T10:36:03.865Z,0.70
2022-12-16T10:39:01.800Z,1.58
2022-12-16T10:41:56.010Z,1.05
2022-12-16T10:44:43.473Z,1.38
2022-12-16T10:47:30.111Z,1.30
2022-12-16T10:50:16.864Z,1.52
2022-12-16T10:53:08.113Z,1.58
2022-12-16T10:56:27.656Z,1.40
2022-12-16T10:59:16.668Z,1.23
2022-12-16T11:02:16.456Z,1.30
2022-12-16T11:05:02.464Z,2.22
2022-12-16T11:08:12.338Z,1.88
2022-12-16T11:11:06.566Z,0.80
2022-12-16T11:13:54.140Z,1.27
2022-12-16T11:16:42.790Z,1.55
2022-12-16T11:19:39.770Z,1.55
2022-12-16T11:22:45.609Z,2.00
2022-12-16T11:25:35.183Z,1.23
2022-12-16T11:28:23.268Z,3.33
2022-12-16T11:31:14.240Z,0.90
2022-12-16T11:34:00.728Z,1.95
2022-12-16T11:36:46.352Z,2.58
2022-12-16T11:39:38.825Z,1.52
2022-12-16T11:42:26.432Z,3.15
2022-12-16T11:45:17.212Z,1.27
2022-12-16T11:48:14.413Z,1.50
2022-12-16T11:51:15.292Z,0.88
2022-12-16T11:54:34.690Z,3.42
2022-12-16T11:57:23.409Z,1.05
2022-12-16T12:00:15.532Z,0.95
2022-12-16T12:03:10.190Z,2.72
2022-12-16T12:06:23.053Z,1.95
2022-12-16T12:09:39.430Z,1.70
2022-12-16T12:12:45.508Z,2.53
2022-12-16T12:16:08.326Z,1.02
2022-12-16T12:19:29.993Z,1.83
2022-12-16T12:22:21.263Z,1.23
2022-12-16T12:25:27.975Z,0.88
2022-12-16T12:28:28.243Z,0.77
2022-12-16T12:31:28.398Z,1.48
2022-12-16T12:34:33.037Z,1.17
2022-12-16T12:37:42.121Z,1.02
2022-12-16T12:40:35.462Z,1.15
2022-12-16T12:43:30.841Z,2.38
2022-12-16T12:46:42.717Z,1.10
2022-12-16T12:49:44.148Z,1.05
2022-12-16T12:52:42.888Z,1.98
2022-12-16T12:55:32.921Z,0.70
2022-12-16T12:58:19.205Z,1.67
2022-12-16T13:01:11.991Z,1.65
2022-12-16T13:04:25.223Z,0.85
2022-12-16T13:07:13.723Z,1.73
2022-12-16T13:09:59.186Z,0.80
2022-12-16T13:12:47.429Z,1.98
2022-12-16T13:15:51.816Z,1.10
2022-12-16T13:18:46.141Z,1.10
2022-12-16T13:21:57.049Z,0.95
2022-12-16T13:24:45.537Z,0.60
2022-12-16T13:27:35.303Z,1.33
2022-12-16T13:30:38.460Z,3.65
2022-12-16T13:33:45.683Z,1.10
2022-12-16T13:36:34.373Z,0.77
2022-12-16T13:39:45.071Z,0.82
2022-12-16T13:42:58.325Z,2.33
2022-12-16T13:46:10.458Z,0.60
2022-12-16T13:49:00.029Z,0.70
2022-12-16T13:52:16.923Z,0.63
2022-12-16T13:55:12.474Z,0.80
2022-12-16T13:58:00.972Z,2.60
2022-12-16T14:00:47.852Z,1.02
2022-12-16T14:03:52.173Z,0.90
2022-12-16T14:06:43.036Z,0.50
2022-12-16T14:09:51.474Z,0.88
2022-12-16T14:12:58.627Z,1.15
2022-12-16T14:16:03.996Z,1.33
2022-12-16T14:19:06.805Z,0.70
2022-12-16T14:22:01.619Z,0.77
2022-12-16T14:24:48.962Z,1.77
2022-12-16T14:27:42.237Z,0.55
2022-12-16T14:30:39.801Z,1.00
2022-12-16T14:33:43.422Z,1.23
2022-12-16T14:36:44.796Z,1.85
2022-12-16T14:39:38.898Z,1.33
2022-12-16T14:42:44.553Z,1.37
2022-12-16T14:45:41.719Z,4.35
2022-12-16T14:48:33.996Z,3.25
2022-12-16T14:51:34.180Z,3.40
2022-12-16T14:54:39.843Z,2.10
2022-12-16T14:57:31.888Z,1.63
2022-12-16T15:00:25.993Z,3.42
2022-12-16T15:03:30.154Z,2.67
2022-12-16T15:06:16.385Z,1.63
2022-12-16T15:09:13.932Z,1.00
2022-12-16T15:12:00.655Z,3.63
2022-12-16T15:14:53.233Z,2.80
2022-12-16T15:17:49.835Z,1.90
2022-12-16T15:20:49.072Z,1.23
2022-12-16T15:23:47.487Z,1.13
2022-12-16T15:26:41.129Z,1.13
2022-12-16T15:29:51.292Z,1.75
2022-12-16T15:33:06.301Z,4.25
2022-12-16T15:35:55.046Z,3.53
2022-12-16T15:38:46.870Z,9.27
2022-12-16T15:41:55.840Z,1.83
2022-12-16T15:44:47.012Z,5.57
2022-12-16T15:47:46.015Z,1.05
2022-12-16T15:50:34.601Z,2.70
2022-12-16T15:53:49.227Z,3.05
2022-12-16T15:56:51.649Z,2.90
2022-12-16T15:59:49.204Z,3.17
2022-12-16T16:02:45.472Z,2.17
2022-12-16T16:05:32.452Z,2.65
2022-12-16T16:08:18.548Z,1.95
2022-12-16T16:11:08.778Z,1.42
2022-12-16T16:14:04.235Z,3.05
2022-12-16T16:17:00.338Z,4.85
2022-12-16T16:20:09.002Z,2.20
2022-12-16T16:22:55.046Z,2.03
2022-12-16T16:25:40.550Z,1.77
2022-12-16T16:28:38.209Z,2.13
2022-12-16T16:31:23.736Z,2.72
2022-12-16T16:34:08.852Z,5.68
2022-12-16T16:36:54.127Z,2.33
2022-12-16T16:39:39.622Z,2.13
2022-12-16T16:42:25.042Z,2.92
2022-12-16T16:45:10.616Z,2.03
2022-12-16T16:47:56.172Z,3.35
2022-12-16T16:50:41.553Z,1.80
2022-12-16T16:53:34.231Z,3.13
2022-12-16T16:56:20.273Z,2.00
2022-12-16T16:59:06.205Z,4.00
2022-12-16T17:01:51.665Z,3.08
2022-12-16T17:04:37.012Z,4.55
2022-12-16T17:07:22.175Z,5.30
2022-12-16T17:10:07.615Z,1.55
2022-12-16T17:12:53.016Z,4.47
2022-12-16T17:15:41.621Z,2.72
2022-12-16T17:18:27.430Z,2.28
2022-12-16T17:21:13.414Z,1.92
2022-12-16T17:23:59.012Z,4.13
2022-12-16T17:26:44.310Z,2.42
2022-12-16T17:29:41.960Z,2.00
2022-12-16T17:32:27.403Z,3.10
2022-12-16T17:35:12.672Z,2.95
2022-12-16T17:37:58.368Z,2.30
2022-12-16T17:40:43.700Z,3.97
2022-12-16T17:43:29.329Z,2.67
2022-12-16T17:46:25.638Z,3.42
2022-12-16T17:49:12.594Z,6.47
2022-12-16T17:51:58.595Z,5.60
2022-12-16T17:54:44.113Z,3.33
2022-12-16T17:57:29.899Z,3.15
2022-12-16T18:00:15.465Z,2.78
2022-12-16T18:03:01.201Z,10.30
2022-12-16T18:05:46.620Z,2.58
2022-12-16T18:08:32.407Z,2.72
2022-12-16T18:11:18.027Z,4.53
2022-12-16T18:14:03.202Z,4.00
2022-12-16T18:16:48.904Z,3.35
2022-12-16T18:19:35.825Z,2.97
2022-12-16T18:22:24.943Z,2.75
2022-12-16T18:25:10.416Z,4.78
2022-12-16T18:27:56.009Z,2.80
2022-12-16T18:30:41.490Z,3.30
2022-12-16T18:33:27.122Z,2.85
2022-12-16T18:36:12.368Z,4.57
2022-12-16T18:38:57.579Z,3.88
2022-12-16T18:41:43.129Z,3.67
2022-12-16T18:44:31.143Z,4.43
2022-12-16T18:47:36.525Z,2.65
2022-12-16T18:50:28.523Z,3.40
2022-12-16T18:53:15.910Z,4.05
2022-12-16T18:56:01.464Z,4.82
2022-12-16T18:58:51.598Z,4.05
2022-12-16T19:01:37.432Z,7.93
2022-12-16T19:04:22.990Z,5.90
2022-12-16T19:07:08.478Z,5.85
2022-12-16T19:09:53.936Z,7.03
2022-12-16T19:12:39.273Z,5.80
2022-12-16T19:15:24.958Z,5.65
2022-12-16T19:18:10.967Z,4.35
2022-12-16T19:20:56.776Z,5.32
2022-12-16T19:23:42.745Z,6.57
2022-12-16T19:26:28.606Z,9.52
2022-12-16T19:29:14.139Z,5.70
2022-12-16T19:31:59.728Z,7.55
2022-12-16T19:34:44.902Z,8.52
2022-12-16T19:37:30.330Z,5.57
2022-12-16T19:40:15.637Z,6.13
2022-12-16T19:43:01.078Z,8.15
2022-12-16T19:45:46.536Z,7.03
2022-12-16T19:48:31.694Z,8.10
2022-12-16T19:51:21.340Z,7.22
2022-12-16T19:54:07.183Z,6.38
2022-12-16T19:56:52.956Z,11.25
2022-12-16T19:59:41.023Z,6.88
2022-12-16T20:02:30.413Z,7.47
2022-12-16T20:05:23.680Z,7.20
2022-12-16T20:08:09.177Z,7.82
2022-12-16T20:10:56.175Z,6.97
2022-12-16T20:13:41.922Z,6.90
2022-12-16T20:16:28.962Z,7.07
2022-12-16T20:19:15.084Z,7.50
2022-12-16T20:22:06.848Z,8.40
2022-12-16T20:24:52.946Z,8.10
2022-12-16T20:27:42.292Z,11.02
2022-12-16T20:30:28.860Z,6.60
2022-12-16T20:33:14.125Z,9.15
2022-12-16T20:35:59.556Z,8.27
2022-12-16T20:38:45.013Z,7.40
2022-12-16T20:41:30.471Z,9.20
2022-12-16T20:44:15.817Z,8.35
2022-12-16T20:47:01.297Z,9.70
2022-12-16T20:49:46.672Z,8.38
2022-12-16T20:52:32.122Z,8.23
2022-12-16T20:55:17.628Z,6.38
2022-12-16T20:58:03.118Z,8.23
2022-12-16T21:00:48.542Z,5.85
2022-12-16T21:03:33.944Z,6.40
2022-12-16T21:06:19.578Z,7.10
2022-12-16T21:09:04.807Z,7.97
2022-12-16T21:11:50.136Z,8.63
2022-12-16T21:14:35.528Z,7.28
2022-12-16T21:17:20.734Z,7.32
2022-12-16T21:20:06.290Z,13.27
2022-12-16T21:22:51.804Z,7.32
2022-12-16T21:25:38.782Z,6.25
2022-12-16T21:28:24.300Z,8.93
2022-12-16T21:31:09.691Z,8.43
2022-12-16T21:33:55.441Z,6.18
2022-12-16T21:36:40.738Z,7.63
2022-12-16T21:39:26.161Z,9.10
2022-12-16T21:42:11.798Z,7.05
2022-12-16T21:44:57.134Z,8.15
2022-12-16T21:47:42.771Z,8.70
2022-12-16T21:50:28.533Z,8.45
2022-12-16T21:53:13.963Z,6.38
2022-12-16T21:55:59.147Z,8.40
2022-12-16T21:58:44.510Z,6.93
2022-12-16T22:01:29.967Z,7.55
2022-12-16T22:04:15.166Z,6.97
2022-12-16T22:07:00.663Z,6.43
2022-12-16T22:09:46.209Z,5.97
2022-12-16T22:12:31.653Z,6.63
2022-12-16T22:15:17.166Z,6.90
2022-12-16T22:18:02.666Z,7.30
2022-12-16T22:20:48.253Z,6.15
2022-12-16T22:23:33.656Z,10.15
2022-12-16T22:26:20.013Z,6.13
2022-12-16T22:29:05.531Z,7.28
2022-12-16T22:31:50.933Z,9.68
2022-12-16T22:34:42.002Z,8.15
2022-12-16T22:37:27.675Z,8.98
2022-12-16T22:40:13.232Z,9.82
2022-12-16T22:42:58.624Z,6.03
2022-12-16T22:45:44.203Z,7.15
2022-12-16T22:48:31.347Z,6.90
2022-12-16T22:51:17.042Z,6.90
2022-12-16T22:54:02.538Z,8.40
2022-12-16T22:56:47.718Z,7.03
2022-12-16T22:59:33.309Z,7.35
2022-12-16T23:02:18.492Z,6.93
2022-12-16T23:05:04.393Z,5.93
2022-12-16T23:07:49.933Z,6.63
2022-12-16T23:10:35.332Z,7.30
2022-12-16T23:13:20.885Z,5.55
2022-12-16T23:16:06.391Z,6.95
2022-12-16T23:18:52.051Z,4.45
2022-12-16T23:21:38.084Z,5.18
2022-12-16T23:24:24.060Z,9.45
2022-12-16T23:27:09.440Z,5.60
2022-12-16T23:29:56.792Z,8.02
2022-12-16T23:32:43.006Z,4.57
2022-12-16T23:35:32.989Z,5.35
2022-12-16T23:41:53.899Z,6.07
2022-12-16T23:44:41.779Z,5.63
2022-12-16T23:47:27.304Z,6.65
2022-12-16T23:50:15.707Z,4.28
2022-12-16T23:53:01.282Z,5.38
2022-12-16T23:55:46.735Z,4.25
2022-12-16T23:58:32.317Z,5.18
